createdAt,value
2023-01-09T00:00:00.121Z,90.7
2023-01-09T00:05:00.105Z,90.7
2023-01-09T00:10:00.110Z,90.7
2023-01-09T00:15:00.130Z,90.7
2023-01-09T00:20:00.154Z,90.7
2023-01-09T00:25:00.094Z,90.6
2023-01-09T00:30:00.103Z,90.6
2023-01-09T00:35:00.118Z,90.6
2023-01-09T00:40:00.107Z,90.5
2023-01-09T00:45:00.112Z,90.5
2023-01-09T00:50:00.119Z,90.6
2023-01-09T00:55:00.100Z,90.6
2023-01-09T01:00:00.157Z,90.7
2023-01-09T01:05:00.109Z,90.7
2023-01-09T01:10:00.102Z,90.7
2023-01-09T01:15:00.129Z,90.8
2023-01-09T01:20:00.087Z,91
2023-01-09T01:25:00.101Z,91.2
2023-01-09T01:30:00.120Z,91.2
2023-01-09T01:35:00.156Z,91.2
2023-01-09T01:40:00.113Z,91.2
2023-01-09T01:45:00.088Z,91.1
2023-01-09T01:50:00.100Z,91.1
2023-01-09T01:55:00.138Z,91
2023-01-09T02:00:00.154Z,91
2023-01-09T02:05:00.083Z,90.9
2023-01-09T02:10:00.127Z,90.8
2023-01-09T02:15:00.153Z,90.7
2023-01-09T02:20:00.162Z,90.6
2023-01-09T02:25:00.140Z,91.1
2023-01-09T02:30:00.167Z,91.6
2023-01-09T02:35:00.135Z,92.1
2023-01-09T02:40:00.147Z,92.5
2023-01-09T02:45:00.111Z,92.8
2023-01-09T02:50:00.187Z,93
2023-01-09T02:55:00.180Z,93.2
2023-01-09T03:00:00.163Z,93.9
2023-01-09T03:05:00.117Z,94.4
2023-01-09T03:10:00.102Z,94.7
2023-01-09T03:15:00.141Z,95.1
2023-01-09T03:20:00.121Z,95.5
2023-01-09T03:25:00.132Z,95.8
2023-01-09T03:30:00.159Z,96.2
2023-01-09T03:35:00.126Z,96.8
2023-01-09T03:40:00.161Z,97.2
2023-01-09T03:45:00.157Z,97.4
2023-01-09T03:50:00.151Z,97.7
2023-01-09T03:55:00.147Z,97.9
2023-01-09T04:00:00.159Z,98
2023-01-09T04:05:00.141Z,98.2
2023-01-09T04:10:00.123Z,98.3
2023-01-09T04:15:00.130Z,98.4
2023-01-09T04:20:00.147Z,98.6
2023-01-09T04:25:00.124Z,99
2023-01-09T04:30:00.144Z,99
2023-01-09T04:35:00.169Z,99.1
2023-01-09T04:40:00.122Z,99.2
2023-01-09T04:45:00.146Z,99.2
2023-01-09T04:50:00.125Z,99.3
2023-01-09T04:55:00.137Z,99.3
2023-01-09T05:00:00.122Z,99.3
2023-01-09T05:05:00.114Z,99.3
2023-01-09T05:10:00.134Z,99.4
2023-01-09T05:15:00.130Z,99.4
2023-01-09T05:20:00.103Z,99.4
2023-01-09T05:25:00.578Z,99.4
2023-01-09T05:30:00.133Z,99.4
2023-01-09T05:35:00.201Z,99.4
2023-01-09T05:40:00.123Z,99.3
2023-01-09T05:45:00.119Z,99.2
2023-01-09T05:50:00.129Z,99.2
2023-01-09T05:55:00.110Z,99
2023-01-09T06:00:00.165Z,98.9
2023-01-09T06:05:00.200Z,99
2023-01-09T06:10:00.119Z,99
2023-01-09T06:15:00.127Z,99.1
2023-01-09T06:20:00.142Z,99
2023-01-09T06:25:00.122Z,99
2023-01-09T06:30:00.134Z,99
2023-01-09T06:35:00.129Z,99
2023-01-09T06:40:00.138Z,98.9
2023-01-09T06:45:00.117Z,98.9
2023-01-09T06:50:00.113Z,98.9
2023-01-09T06:55:00.153Z,98.8
2023-01-09T07:00:00.184Z,98.9
2023-01-09T07:05:00.119Z,98.9
2023-01-09T07:10:00.122Z,98.9
2023-01-09T07:15:00.159Z,98.9
2023-01-09T07:20:00.100Z,98.9
2023-01-09T07:25:00.139Z,98.9
2023-01-09T07:30:00.143Z,98.8
2023-01-09T07:35:00.163Z,98.8
2023-01-09T07:40:00.121Z,98.7
2023-01-09T07:45:00.122Z,98.7
2023-01-09T07:50:00.138Z,98.7
2023-01-09T07:55:00.137Z,98.6
2023-01-09T08:00:00.186Z,98.6
2023-01-09T08:05:00.139Z,98.7
2023-01-09T08:10:00.134Z,98.7
2023-01-09T08:15:00.153Z,98.8
2023-01-09T08:20:00.173Z,98.8
2023-01-09T08:25:00.294Z,98.8
2023-01-09T08:30:00.159Z,98.8
2023-01-09T08:35:00.304Z,98.9
2023-01-09T08:40:00.167Z,98.8
2023-01-09T08:45:00.314Z,98.7
2023-01-09T08:50:00.136Z,98.6
2023-01-09T08:55:00.137Z,98.4
2023-01-09T09:00:00.146Z,98.1
2023-01-09T09:05:00.134Z,97.6
2023-01-09T09:10:00.125Z,97.2
2023-01-09T09:15:00.148Z,96.8
2023-01-09T09:20:00.281Z,96.7
2023-01-09T09:25:00.109Z,96.8
2023-01-09T09:30:00.188Z,96.7
2023-01-09T09:35:00.247Z,96.7
2023-01-09T09:40:06.581Z,96.3
2023-01-09T09:45:00.120Z,96.1
2023-01-09T09:50:00.145Z,95.8
2023-01-09T09:55:00.143Z,94.8
2023-01-09T10:00:00.156Z,94.2
2023-01-09T10:05:00.124Z,93.2
2023-01-09T10:10:00.135Z,92.4
2023-01-09T10:15:00.168Z,92.3
2023-01-09T10:20:00.162Z,91.5
2023-01-09T10:25:00.094Z,90.9
2023-01-09T10:30:00.151Z,89.2
2023-01-09T10:35:00.169Z,85
2023-01-09T10:40:00.116Z,82
2023-01-09T10:45:00.122Z,82.2
2023-01-09T10:50:00.115Z,82.5
2023-01-09T10:55:00.134Z,82.2
2023-01-09T11:00:00.177Z,81
2023-01-09T11:05:00.134Z,80.3
2023-01-09T11:10:00.200Z,78.9
2023-01-09T11:15:00.160Z,79.6
2023-01-09T11:20:00.110Z,79.9
2023-01-09T11:25:00.103Z,80
2023-01-09T11:30:00.144Z,79.4
2023-01-09T11:35:00.139Z,80.3
2023-01-09T11:40:00.107Z,80.7
2023-01-09T11:45:00.134Z,81.1
2023-01-09T11:50:00.118Z,82.7
2023-01-09T11:55:00.132Z,83.4
2023-01-09T12:00:00.179Z,84.5
2023-01-09T12:05:00.155Z,83.7
2023-01-09T12:10:00.181Z,82.7
2023-01-09T12:15:00.186Z,82.3
2023-01-09T12:20:00.109Z,80.6
2023-01-09T12:25:00.326Z,80.4
2023-01-09T12:30:00.198Z,78.6
2023-01-09T12:35:00.152Z,77.4
2023-01-09T12:40:00.138Z,78.1
2023-01-09T12:45:00.287Z,78.8
2023-01-09T12:50:00.166Z,79.6
2023-01-09T12:55:00.146Z,79.9
2023-01-09T13:00:00.180Z,80.6
2023-01-09T13:05:00.166Z,82.2
2023-01-09T13:10:00.104Z,82.7
2023-01-09T13:15:00.172Z,82
2023-01-09T13:20:00.160Z,81.2
2023-01-09T13:25:00.165Z,81.8
2023-01-09T13:30:00.141Z,81.4
2023-01-09T13:35:00.142Z,81.4
2023-01-09T13:40:00.153Z,82.7
2023-01-09T13:45:00.103Z,84
2023-01-09T13:50:00.188Z,85.2
2023-01-09T13:55:00.511Z,85.9
2023-01-09T14:00:00.198Z,85.8
2023-01-09T14:05:00.291Z,84.9
2023-01-09T14:10:00.171Z,84.8
2023-01-09T14:15:00.179Z,84.8
2023-01-09T14:20:00.172Z,85
2023-01-09T14:25:00.139Z,84.9
2023-01-09T14:30:00.144Z,84.8
2023-01-09T14:35:00.217Z,85.5
2023-01-09T14:40:00.136Z,86.2
2023-01-09T14:45:00.127Z,86.8
2023-01-09T14:50:00.132Z,87.6
2023-01-09T14:55:00.126Z,88.5
2023-01-09T15:00:00.207Z,89
2023-01-09T15:05:00.128Z,90
2023-01-09T15:10:00.158Z,90.3
2023-01-09T15:15:00.152Z,90.7
2023-01-09T15:20:00.121Z,90.7
2023-01-09T15:25:00.129Z,90.8
2023-01-09T15:30:00.146Z,91.1
2023-01-09T15:35:00.116Z,91.2
2023-01-09T15:40:00.126Z,91.3
2023-01-09T15:45:00.159Z,91.3
2023-01-09T15:50:00.158Z,91.4
2023-01-09T15:55:00.138Z,91.5
2023-01-09T16:00:00.144Z,91.7
2023-01-09T16:05:00.138Z,91.9
2023-01-09T16:10:00.142Z,92.1
2023-01-09T16:15:00.125Z,92.2
2023-01-09T16:20:00.146Z,92.2
2023-01-09T16:25:00.169Z,92
2023-01-09T16:30:00.207Z,91.9
2023-01-09T16:35:00.526Z,92
2023-01-09T16:40:00.130Z,92
2023-01-09T16:45:00.110Z,92
2023-01-09T16:50:00.114Z,91.9
2023-01-09T16:55:00.132Z,91.9
2023-01-09T17:00:00.193Z,92
2023-01-09T17:05:00.126Z,92
2023-01-09T17:10:00.157Z,92
2023-01-09T17:15:00.161Z,91.9
2023-01-09T17:20:00.137Z,91.9
2023-01-09T17:25:00.111Z,91.8
2023-01-09T17:30:00.769Z,91.7
2023-01-09T17:35:00.172Z,91.7
2023-01-09T17:40:00.123Z,91.8
2023-01-09T17:45:00.119Z,91.8
2023-01-09T17:50:00.107Z,92
2023-01-09T17:55:00.170Z,92.1
2023-01-09T18:00:00.130Z,92.2
2023-01-09T18:05:00.150Z,92.4
2023-01-09T18:10:00.125Z,92.5
2023-01-09T18:15:00.136Z,92.5
2023-01-09T18:20:00.135Z,92.2
2023-01-09T18:25:00.114Z,92.4
2023-01-09T18:30:00.210Z,92.2
2023-01-09T18:35:00.123Z,92.3
2023-01-09T18:40:00.241Z,92.2
2023-01-09T18:45:00.197Z,92.2
2023-01-09T18:50:00.198Z,92.2
2023-01-09T18:55:00.133Z,92.3
2023-01-09T19:00:00.172Z,92.3
2023-01-09T19:05:00.162Z,92.4
2023-01-09T19:10:00.140Z,92.4
2023-01-09T19:15:00.162Z,92.3
2023-01-09T19:20:00.121Z,92.5
2023-01-09T19:25:00.117Z,92
2023-01-09T19:30:00.163Z,92.5
2023-01-09T19:35:00.199Z,92.5
2023-01-09T19:40:00.171Z,92.6
2023-01-09T19:45:00.173Z,92.7
2023-01-09T19:50:00.150Z,92.9
2023-01-09T19:55:00.131Z,93
2023-01-09T20:00:00.124Z,93.3
2023-01-09T20:05:00.132Z,93.1
2023-01-09T20:10:00.123Z,93.5
2023-01-09T20:15:00.141Z,93.6
2023-01-09T20:20:00.180Z,93.8
2023-01-09T20:25:00.155Z,93.4
2023-01-09T20:30:00.148Z,93.8
2023-01-09T20:35:00.156Z,93.7
2023-01-09T20:40:00.161Z,93.7
2023-01-09T20:45:00.122Z,93.6
2023-01-09T20:50:00.125Z,93.6
2023-01-09T20:55:00.218Z,93.6
2023-01-09T21:00:00.130Z,93.6
2023-01-09T21:05:00.110Z,93.6
2023-01-09T21:10:00.152Z,93.7
2023-01-09T21:15:00.137Z,93.8
2023-01-09T21:20:00.135Z,93.8
2023-01-09T21:25:00.133Z,93.5
2023-01-09T21:30:00.127Z,93.9
2023-01-09T21:35:00.134Z,93.9
2023-01-09T21:40:00.145Z,94
2023-01-09T21:45:00.117Z,94
2023-01-09T21:50:00.141Z,94.1
2023-01-09T21:55:00.146Z,94.2
2023-01-09T22:00:00.143Z,94.3
2023-01-09T22:05:00.186Z,94.3
2023-01-09T22:10:00.146Z,94.3
2023-01-09T22:15:00.150Z,94.2
2023-01-09T22:20:00.114Z,94
2023-01-09T22:25:00.115Z,94
2023-01-09T22:30:00.115Z,94
2023-01-09T22:35:00.127Z,94.1
2023-01-09T22:40:00.123Z,94.1
2023-01-09T22:45:00.113Z,94
2023-01-09T22:50:00.110Z,93.9
2023-01-09T22:55:00.124Z,93.8
2023-01-09T23:00:00.137Z,93.8
2023-01-09T23:05:00.125Z,93.9
2023-01-09T23:10:00.160Z,93.9
2023-01-09T23:15:00.134Z,94
2023-01-09T23:20:00.143Z,93.9
2023-01-09T23:25:00.122Z,93.9
2023-01-09T23:30:00.104Z,93.9
2023-01-09T23:35:00.118Z,94
2023-01-09T23:40:00.127Z,94
2023-01-09T23:45:00.159Z,93.9
2023-01-09T23:50:00.156Z,93.7
2023-01-09T23:55:00.127Z,93.7
